Ajo, Arizona
Current Conditions -  °F | °C
As of 8:55 PM on Thursday 30 Oct 2014 (Local Time) from KGXF Reporting Station
Few Clouds Few Clouds  
Wind Chill: 73°   Ceiling: Unl
Heat Index: 73°   Visibility: 10mi
Dew Point: 41°   Wind: 3mph
Humidity: 31%   Direction: 180°S
Pressure: 29.93"   Gusts: NA
Location:  32.37°N, 112.86°W
Report Text: KGXF 310355Z 18003KT 10SM FEW250 23/05 A2993 RMK SLP126
Loading
Personal Weather Stations






























Interactive Weather Map
Tropical Storm Tracking
New forecast layout! Learn more

10-Day Weather Forecast

Advertisements
Track Severe Weather on mobile